createdAt,value
2018-11-01T00:01:04.742Z,4.97
2018-11-01T00:03:34.080Z,4.60
2018-11-01T00:06:02.656Z,5.27
2018-11-01T00:08:31.260Z,6.40
2018-11-01T00:11:02.829Z,8.37
2018-11-01T00:13:31.452Z,9.60
2018-11-01T00:16:00.156Z,5.60
2018-11-01T00:18:28.773Z,7.73
2018-11-01T00:20:57.336Z,6.80
2018-11-01T00:23:25.937Z,7.87
2018-11-01T00:25:54.536Z,7.40
2018-11-01T00:28:23.245Z,6.50
2018-11-01T00:30:51.863Z,8.73
2018-11-01T00:33:20.384Z,6.60
2018-11-01T00:35:49.009Z,11.47
2018-11-01T00:38:17.585Z,6.60
2018-11-01T00:40:46.239Z,5.63
2018-11-01T00:43:14.845Z,5.17
2018-11-01T00:45:43.820Z,5.90
2018-11-01T00:48:12.540Z,5.23
2018-11-01T00:50:41.199Z,7.90
2018-11-01T00:53:09.961Z,5.77
2018-11-01T00:55:38.576Z,5.90
2018-11-01T00:58:07.436Z,7.57
2018-11-01T01:00:35.977Z,5.00
2018-11-01T01:03:05.001Z,7.10
2018-11-01T01:05:33.621Z,5.47
2018-11-01T01:08:02.172Z,3.90
2018-11-01T01:10:30.937Z,6.93
2018-11-01T01:12:59.480Z,6.27
2018-11-01T01:15:28.077Z,4.37
2018-11-01T01:17:56.694Z,4.60
2018-11-01T01:20:25.265Z,9.77
2018-11-01T01:22:53.881Z,3.90
2018-11-01T01:25:22.547Z,4.20
2018-11-01T01:27:51.133Z,4.73
2018-11-01T01:30:21.109Z,3.83
2018-11-01T01:32:50.417Z,3.10
2018-11-01T01:35:19.263Z,7.00
2018-11-01T01:37:47.951Z,3.80
2018-11-01T01:40:16.547Z,3.93
2018-11-01T01:42:51.276Z,5.40
2018-11-01T01:45:20.288Z,3.90
2018-11-01T01:47:49.193Z,4.47
2018-11-01T01:50:18.697Z,4.83
2018-11-01T01:52:47.677Z,3.93
2018-11-01T01:55:16.613Z,3.43
2018-11-01T01:57:45.186Z,7.47
2018-11-01T02:00:15.858Z,4.73
2018-11-01T02:02:45.968Z,3.90
2018-11-01T02:05:14.788Z,3.80
2018-11-01T02:07:43.475Z,3.77
2018-11-01T02:10:13.681Z,4.80
2018-11-01T02:12:42.638Z,6.57
2018-11-01T02:15:15.525Z,5.27
2018-11-01T02:17:44.461Z,4.77
2018-11-01T02:20:14.885Z,9.50
2018-11-01T02:22:44.208Z,5.93
2018-11-01T02:25:12.896Z,9.70
2018-11-01T02:27:46.732Z,10.50
2018-11-01T02:30:16.598Z,7.80
2018-11-01T02:32:45.966Z,10.47
2018-11-01T02:35:15.825Z,12.23
2018-11-01T02:37:45.176Z,7.97
2018-11-01T02:40:14.288Z,10.87
2018-11-01T02:42:43.363Z,7.43
2018-11-01T02:45:13.125Z,6.60
2018-11-01T02:47:41.981Z,7.40
2018-11-01T02:50:11.745Z,5.63
2018-11-01T02:52:40.685Z,7.93
2018-11-01T02:55:10.029Z,5.93
2018-11-01T02:57:38.945Z,5.17
2018-11-01T03:00:09.660Z,5.37
2018-11-01T03:02:38.323Z,6.17
2018-11-01T03:05:07.604Z,5.50
2018-11-01T03:07:36.184Z,6.30
2018-11-01T03:10:05.775Z,6.07
2018-11-01T03:12:34.447Z,5.20
2018-11-01T03:15:02.997Z,6.20
2018-11-01T03:17:31.564Z,5.40
2018-11-01T03:20:00.304Z,15.93
2018-11-01T03:22:28.905Z,5.80
2018-11-01T03:24:57.632Z,6.47
2018-11-01T03:27:26.169Z,7.10
2018-11-01T03:29:54.824Z,5.43
2018-11-01T03:32:23.474Z,5.07
2018-11-01T03:34:52.015Z,11.73
2018-11-01T03:37:20.516Z,7.70
2018-11-01T03:39:49.125Z,4.10
2018-11-01T03:42:17.785Z,5.23
2018-11-01T03:44:46.441Z,4.23
2018-11-01T03:47:15.074Z,5.57
2018-11-01T03:49:43.849Z,4.10
2018-11-01T03:52:12.488Z,4.67
2018-11-01T03:54:41.193Z,4.43
2018-11-01T03:57:10.152Z,5.70
2018-11-01T03:59:38.762Z,3.93
2018-11-01T04:02:07.469Z,4.33
2018-11-01T04:04:36.477Z,4.47
2018-11-01T04:07:05.039Z,6.23
2018-11-01T04:09:33.625Z,5.60
2018-11-01T04:12:02.287Z,4.97
2018-11-01T04:14:30.941Z,5.83
2018-11-01T04:16:59.631Z,5.53
2018-11-01T04:19:28.136Z,6.07
2018-11-01T04:22:04.650Z,4.63
2018-11-01T04:24:34.063Z,5.73
2018-11-01T04:27:03.184Z,7.07
2018-11-01T04:29:32.511Z,7.07
2018-11-01T04:32:01.216Z,4.63
2018-11-01T04:34:29.718Z,5.10
2018-11-01T04:36:58.365Z,4.40
2018-11-01T04:39:27.284Z,8.50
2018-11-01T04:41:56.185Z,4.97
2018-11-01T04:44:24.930Z,4.60
2018-11-01T04:46:53.652Z,4.37
2018-11-01T04:49:22.192Z,4.53
2018-11-01T04:51:50.892Z,3.77
2018-11-01T04:54:19.693Z,3.63
2018-11-01T04:56:48.372Z,4.10
2018-11-01T04:59:16.996Z,4.23
2018-11-01T05:01:45.632Z,6.70
2018-11-01T05:04:14.176Z,5.03
2018-11-01T05:06:49.524Z,4.43
2018-11-01T05:09:18.064Z,3.70
2018-11-01T05:11:46.904Z,3.73
2018-11-01T05:14:15.469Z,4.77
2018-11-01T05:16:44.094Z,3.37
2018-11-01T05:19:12.661Z,4.53
2018-11-01T05:21:41.254Z,4.83
2018-11-01T05:24:09.833Z,3.63
2018-11-01T05:26:38.416Z,4.23
2018-11-01T05:29:06.985Z,5.30
2018-11-01T05:31:35.633Z,4.43
2018-11-01T05:34:04.493Z,3.83
2018-11-01T05:36:33.097Z,3.50
2018-11-01T05:39:01.753Z,4.50
2018-11-01T05:41:30.325Z,4.43
2018-11-01T05:43:58.986Z,4.17
2018-11-01T05:46:27.614Z,5.30
2018-11-01T05:48:56.355Z,4.20
2018-11-01T05:51:24.920Z,4.40
2018-11-01T05:53:53.637Z,4.40
2018-11-01T05:56:22.224Z,3.77
2018-11-01T05:58:50.745Z,4.13
2018-11-01T06:01:43.672Z,4.80
2018-11-01T06:04:12.274Z,4.53
2018-11-01T06:06:40.933Z,5.43
2018-11-01T06:09:10.468Z,5.20
2018-11-01T06:11:39.048Z,4.20
2018-11-01T06:14:07.714Z,4.87
2018-11-01T06:16:36.334Z,4.53
2018-11-01T06:19:05.368Z,3.87
2018-11-01T06:21:33.956Z,3.70
2018-11-01T06:24:02.518Z,5.10
2018-11-01T06:26:31.231Z,6.47
2018-11-01T06:28:59.761Z,5.33
2018-11-01T06:31:28.537Z,4.10
2018-11-01T06:33:57.176Z,3.77
2018-11-01T06:36:25.788Z,4.77
2018-11-01T06:38:54.400Z,3.63
2018-11-01T06:41:23.057Z,5.00
2018-11-01T06:43:51.865Z,4.20
2018-11-01T06:46:20.468Z,4.40
2018-11-01T06:48:49.152Z,4.50
2018-11-01T06:51:17.804Z,4.20
2018-11-01T06:53:46.425Z,7.80
2018-11-01T06:56:15.280Z,4.20
2018-11-01T06:58:44.033Z,3.60
2018-11-01T07:01:12.604Z,6.67
2018-11-01T07:03:41.319Z,6.63
2018-11-01T07:06:09.855Z,5.10
2018-11-01T07:08:38.590Z,4.70
2018-11-01T07:11:07.292Z,5.47
2018-11-01T07:13:35.927Z,6.17
2018-11-01T07:16:04.885Z,6.00
2018-11-01T07:18:33.516Z,8.87
2018-11-01T07:21:02.173Z,10.63
2018-11-01T07:23:30.708Z,10.07
2018-11-01T07:25:59.630Z,9.80
2018-11-01T07:28:28.109Z,12.90
2018-11-01T07:30:56.677Z,12.57
2018-11-01T07:33:25.388Z,6.47
2018-11-01T07:35:54.016Z,8.93
2018-11-01T07:38:22.614Z,5.80
2018-11-01T07:40:51.214Z,7.07
2018-11-01T07:43:19.748Z,6.67
2018-11-01T07:45:48.341Z,4.77
2018-11-01T07:48:16.877Z,5.30
2018-11-01T07:50:45.493Z,9.57
2018-11-01T07:53:14.049Z,7.30
2018-11-01T07:55:42.596Z,8.77
2018-11-01T07:58:11.328Z,11.83
2018-11-01T08:00:39.888Z,8.00
2018-11-01T08:03:08.704Z,8.10
2018-11-01T08:05:37.473Z,11.67
2018-11-01T08:08:05.960Z,11.17
2018-11-01T08:10:34.576Z,9.37
2018-11-01T08:13:03.149Z,8.83
2018-11-01T08:15:31.800Z,8.40
2018-11-01T08:18:00.444Z,7.17
2018-11-01T08:20:29.253Z,10.43
2018-11-01T08:22:57.777Z,8.23
2018-11-01T08:25:26.317Z,10.70
2018-11-01T08:27:54.968Z,8.10
2018-11-01T08:30:23.528Z,6.80
2018-11-01T08:32:52.137Z,6.97
2018-11-01T08:35:20.755Z,5.57
2018-11-01T08:37:49.385Z,6.77
2018-11-01T08:40:18.024Z,5.73
2018-11-01T08:42:46.644Z,11.27
2018-11-01T08:45:15.984Z,8.33
2018-11-01T08:47:44.503Z,7.97
2018-11-01T08:50:14.360Z,6.07
2018-11-01T08:52:43.630Z,6.00
2018-11-01T08:55:12.712Z,5.77
2018-11-01T08:57:42.735Z,5.47
2018-11-01T09:00:12.245Z,5.77
2018-11-01T09:02:41.677Z,5.27
2018-11-01T09:05:11.213Z,6.13
2018-11-01T09:07:40.236Z,5.83
2018-11-01T09:10:12.305Z,7.53
2018-11-01T09:12:41.123Z,9.53
2018-11-01T09:15:11.365Z,7.70
2018-11-01T09:17:40.367Z,5.83
2018-11-01T09:20:09.607Z,6.47
2018-11-01T09:22:38.663Z,5.90
2018-11-01T09:25:07.501Z,5.40
2018-11-01T09:27:36.089Z,5.97
2018-11-01T09:30:06.053Z,7.43
2018-11-01T09:32:34.664Z,10.63
2018-11-01T09:35:03.341Z,16.17
2018-11-01T09:37:32.057Z,6.90
2018-11-01T09:40:00.845Z,5.00
2018-11-01T09:42:29.524Z,6.70
2018-11-01T09:44:58.219Z,5.37
2018-11-01T09:47:27.594Z,5.70
2018-11-01T09:49:55.906Z,7.93
2018-11-01T09:52:24.659Z,6.23
2018-11-01T09:54:53.356Z,6.07
2018-11-01T09:57:21.927Z,5.17
2018-11-01T09:59:50.873Z,9.60
2018-11-01T10:02:19.624Z,6.80
2018-11-01T10:04:48.149Z,7.83
2018-11-01T10:07:16.760Z,7.43
2018-11-01T10:09:45.405Z,7.13
2018-11-01T10:12:14.650Z,9.40
2018-11-01T10:14:43.260Z,9.73
2018-11-01T10:17:12.294Z,7.00
2018-11-01T10:19:40.518Z,7.73
2018-11-01T10:22:09.288Z,8.27
2018-11-01T10:24:41.281Z,14.53
2018-11-01T10:27:19.513Z,7.03
2018-11-01T10:29:38.814Z,8.13
2018-11-01T10:32:09.189Z,6.93
2018-11-01T10:34:37.743Z,8.10
2018-11-01T10:37:06.403Z,8.17
2018-11-01T10:39:35.093Z,6.80
2018-11-01T10:42:04.205Z,7.27
2018-11-01T10:44:32.982Z,7.03
2018-11-01T10:47:02.720Z,6.20
2018-11-01T10:49:31.266Z,6.53
2018-11-01T10:51:59.828Z,6.30
2018-11-01T10:54:28.523Z,6.40
2018-11-01T10:56:57.328Z,6.90
2018-11-01T10:59:25.969Z,9.93
2018-11-01T11:02:00.327Z,5.30
2018-11-01T11:04:29.041Z,5.87
2018-11-01T11:06:58.657Z,6.20
2018-11-01T11:09:27.488Z,6.93
2018-11-01T11:11:56.149Z,6.33
2018-11-01T11:14:24.761Z,5.40
2018-11-01T11:16:53.285Z,8.90
2018-11-01T11:19:23.177Z,6.63
2018-11-01T11:21:51.884Z,5.53
2018-11-01T11:24:20.485Z,11.20
2018-11-01T11:26:49.181Z,6.03
2018-11-01T11:29:18.044Z,5.40
2018-11-01T11:31:46.593Z,5.00
2018-11-01T11:34:15.117Z,5.93
2018-11-01T11:36:43.880Z,4.90
2018-11-01T11:39:13.518Z,4.87
2018-11-01T11:41:42.725Z,5.43
2018-11-01T11:44:11.613Z,10.73
2018-11-01T11:46:40.596Z,6.90
2018-11-01T11:49:09.389Z,19.97
2018-11-01T11:51:38.357Z,8.00
2018-11-01T11:54:07.622Z,7.23
2018-11-01T11:56:36.188Z,7.27
2018-11-01T11:59:05.182Z,6.13
2018-11-01T12:01:33.818Z,6.33
2018-11-01T12:04:03.122Z,5.80
2018-11-01T12:06:31.857Z,5.70
2018-11-01T12:09:00.484Z,5.93
2018-11-01T12:11:29.126Z,5.73
2018-11-01T12:13:58.566Z,37.50
2018-11-01T12:16:27.199Z,6.33
2018-11-01T12:18:55.960Z,6.37
2018-11-01T12:21:24.572Z,5.70
2018-11-01T12:23:53.211Z,7.37
2018-11-01T12:26:21.788Z,8.97
2018-11-01T12:28:50.551Z,6.07
2018-11-01T12:31:19.344Z,6.57
2018-11-01T12:33:48.025Z,7.73
2018-11-01T12:36:16.829Z,9.50
2018-11-01T12:38:45.502Z,10.47
2018-11-01T12:41:14.344Z,9.80
2018-11-01T12:43:43.176Z,8.13
2018-11-01T12:46:11.875Z,8.43
2018-11-01T12:48:40.517Z,7.87
2018-11-01T12:51:09.213Z,8.63
2018-11-01T12:53:37.925Z,8.60
2018-11-01T12:56:06.887Z,7.63
2018-11-01T12:58:35.505Z,8.27
2018-11-01T13:01:04.186Z,7.40
2018-11-01T13:03:32.792Z,9.13
2018-11-01T13:06:01.530Z,10.73
2018-11-01T13:08:30.125Z,8.47
2018-11-01T13:10:58.941Z,14.53
2018-11-01T13:13:27.875Z,11.40
2018-11-01T13:15:56.474Z,6.67
2018-11-01T13:18:25.061Z,6.60
2018-11-01T13:20:53.737Z,11.60
2018-11-01T13:23:22.522Z,8.77
2018-11-01T13:25:51.202Z,8.37
2018-11-01T13:28:19.721Z,6.53
2018-11-01T13:30:48.430Z,6.73
2018-11-01T13:33:17.343Z,5.90
2018-11-01T13:35:46.861Z,6.23
2018-11-01T13:38:15.681Z,6.73
2018-11-01T13:40:44.904Z,5.50
2018-11-01T13:43:14.059Z,5.73
2018-11-01T13:45:43.800Z,5.70
2018-11-01T13:48:12.735Z,6.13
2018-11-01T13:50:41.622Z,5.43
2018-11-01T13:53:10.276Z,6.93
2018-11-01T13:55:39.032Z,5.63
2018-11-01T13:58:07.768Z,5.97
2018-11-01T14:00:36.688Z,5.93
2018-11-01T14:03:06.629Z,7.13
2018-11-01T14:05:36.214Z,6.00
2018-11-01T14:08:05.245Z,6.40
2018-11-01T14:10:33.965Z,5.83
2018-11-01T14:13:02.665Z,5.63
2018-11-01T14:15:31.584Z,6.60
2018-11-01T14:18:00.557Z,6.50
2018-11-01T14:20:29.660Z,6.00
2018-11-01T14:22:58.719Z,5.27
2018-11-01T14:25:27.619Z,6.47
2018-11-01T14:27:57.208Z,6.97
2018-11-01T14:30:25.967Z,6.00
2018-11-01T14:32:54.781Z,6.63
2018-11-01T14:35:23.554Z,6.10
2018-11-01T14:37:52.925Z,4.73
2018-11-01T14:40:21.712Z,4.90
2018-11-01T14:42:50.872Z,5.53
2018-11-01T14:45:19.567Z,6.77
2018-11-01T14:47:50.134Z,5.20
2018-11-01T14:50:18.936Z,7.07
2018-11-01T14:52:48.384Z,4.97
2018-11-01T14:55:18.969Z,5.67
2018-11-01T14:57:47.700Z,5.37
2018-11-01T15:00:15.605Z,4.53
2018-11-01T15:02:44.563Z,5.87
2018-11-01T15:05:13.689Z,7.23
2018-11-01T15:07:42.546Z,5.17
2018-11-01T15:10:14.199Z,13.80
2018-11-01T15:12:43.600Z,6.27
2018-11-01T15:15:12.874Z,6.23
2018-11-01T15:17:43.182Z,5.23
2018-11-01T15:20:12.440Z,4.40
2018-11-01T15:22:41.062Z,4.73
2018-11-01T15:25:10.990Z,5.03
2018-11-01T15:27:39.604Z,4.40
2018-11-01T15:30:10.695Z,6.10
2018-11-01T15:32:39.252Z,7.37
2018-11-01T15:35:08.238Z,5.67
2018-11-01T15:37:37.003Z,8.03
2018-11-01T15:40:07.863Z,7.47
2018-11-01T15:42:36.461Z,5.97
2018-11-01T15:45:05.777Z,5.47
2018-11-01T15:47:34.409Z,6.60
2018-11-01T15:50:03.052Z,5.07
2018-11-01T15:52:31.653Z,4.23
2018-11-01T15:55:00.303Z,9.13
2018-11-01T15:57:28.945Z,5.33
2018-11-01T15:59:57.677Z,7.00
2018-11-01T16:02:26.525Z,5.20
2018-11-01T16:04:55.038Z,6.00
2018-11-01T16:07:23.652Z,5.03
2018-11-01T16:09:52.433Z,6.07
2018-11-01T16:12:20.965Z,6.10
2018-11-01T16:14:49.541Z,5.83
2018-11-01T16:17:18.284Z,13.83
2018-11-01T16:19:47.007Z,7.10
2018-11-01T16:22:15.604Z,7.63
2018-11-01T16:24:44.278Z,5.73
2018-11-01T16:27:12.948Z,6.03
2018-11-01T16:29:41.652Z,7.43
2018-11-01T16:32:10.309Z,10.97
2018-11-01T16:34:38.960Z,7.00
2018-11-01T16:37:09.813Z,6.13
2018-11-01T16:39:38.493Z,5.83
2018-11-01T16:42:07.227Z,5.23
2018-11-01T16:44:35.893Z,7.00
2018-11-01T16:47:04.516Z,6.60
2018-11-01T16:49:34.056Z,7.67
2018-11-01T16:52:02.700Z,6.23
2018-11-01T16:54:33.572Z,6.97
2018-11-01T16:57:04.206Z,6.20
2018-11-01T16:59:32.921Z,5.40
2018-11-01T17:02:01.589Z,7.90
2018-11-01T17:04:30.602Z,6.93
2018-11-01T17:06:59.280Z,6.37
2018-11-01T17:09:32.763Z,6.20
2018-11-01T17:12:01.964Z,11.03
2018-11-01T17:14:30.606Z,12.00
2018-11-01T17:16:59.505Z,10.70
2018-11-01T17:19:28.541Z,9.90
2018-11-01T17:21:57.113Z,8.97
2018-11-01T17:24:25.945Z,11.10
2018-11-01T17:26:54.795Z,9.07
2018-11-01T17:29:23.425Z,12.47
2018-11-01T17:31:52.128Z,8.47
2018-11-01T17:34:20.812Z,10.03
2018-11-01T17:36:49.479Z,10.40
2018-11-01T17:39:18.156Z,11.73
2018-11-01T17:41:46.819Z,11.43
2018-11-01T17:44:15.446Z,9.43
2018-11-01T17:46:44.160Z,11.23
2018-11-01T17:49:12.948Z,7.43
2018-11-01T17:51:41.508Z,6.60
2018-11-01T17:54:17.466Z,6.83
2018-11-01T17:56:46.580Z,5.73
2018-11-01T17:59:15.339Z,6.37
2018-11-01T18:01:44.017Z,7.80
2018-11-01T18:04:13.102Z,7.20
2018-11-01T18:06:41.714Z,6.43
2018-11-01T18:09:13.153Z,7.40
2018-11-01T18:11:42.311Z,7.47
2018-11-01T18:14:10.936Z,6.20
2018-11-01T18:16:40.409Z,7.47
2018-11-01T18:19:09.046Z,5.23
2018-11-01T18:21:37.736Z,7.33
2018-11-01T18:24:07.426Z,6.17
2018-11-01T18:26:35.970Z,6.80
2018-11-01T18:29:04.678Z,5.77
2018-11-01T18:31:33.183Z,5.47
2018-11-01T18:34:01.833Z,7.23
2018-11-01T18:36:30.594Z,6.50
2018-11-01T18:38:59.573Z,8.13
2018-11-01T18:41:28.190Z,7.60
2018-11-01T18:43:57.000Z,8.77
2018-11-01T18:46:25.756Z,8.83
2018-11-01T18:48:54.397Z,8.63
2018-11-01T18:51:23.125Z,8.33
2018-11-01T18:53:52.021Z,7.30
2018-11-01T18:56:21.276Z,8.57
2018-11-01T18:58:49.864Z,8.03
2018-11-01T19:01:18.539Z,8.53
2018-11-01T19:03:47.069Z,9.60
2018-11-01T19:06:15.856Z,14.43
2018-11-01T19:08:44.767Z,10.53
2018-11-01T19:11:13.389Z,14.40
2018-11-01T19:13:42.129Z,19.10
2018-11-01T19:16:10.807Z,32.93
2018-11-01T19:18:40.265Z,27.47
2018-11-01T19:21:11.655Z,28.37
2018-11-01T19:23:40.522Z,22.73
2018-11-01T19:26:10.606Z,22.03
2018-11-01T19:28:39.306Z,19.70
2018-11-01T19:31:07.897Z,22.10
2018-11-01T19:33:36.569Z,21.03
2018-11-01T19:36:05.369Z,18.50
2018-11-01T19:38:33.997Z,17.77
2018-11-01T19:41:02.556Z,15.90
2018-11-01T19:43:31.275Z,18.30
2018-11-01T19:45:59.889Z,16.53
2018-11-01T19:48:28.520Z,19.20
2018-11-01T19:50:57.150Z,16.63
2018-11-01T19:53:25.720Z,13.10
2018-11-01T19:55:54.405Z,19.20
2018-11-01T19:58:23.078Z,17.17
2018-11-01T20:00:51.801Z,18.83
2018-11-01T20:03:20.588Z,19.83
2018-11-01T20:05:49.241Z,20.40
2018-11-01T20:08:18.031Z,12.93
2018-11-01T20:10:46.561Z,15.00
2018-11-01T20:13:15.276Z,14.77
2018-11-01T20:15:43.964Z,14.57
2018-11-01T20:18:12.524Z,17.10
2018-11-01T20:20:41.077Z,15.40
2018-11-01T20:23:09.669Z,14.13
2018-11-01T20:25:38.427Z,11.83
2018-11-01T20:28:07.423Z,15.03
2018-11-01T20:30:36.004Z,18.40
2018-11-01T20:33:04.903Z,21.83
2018-11-01T20:35:33.500Z,20.90
2018-11-01T20:38:02.408Z,16.73
2018-11-01T20:40:31.356Z,16.00
2018-11-01T20:43:00.006Z,23.60
2018-11-01T20:45:28.789Z,14.60
2018-11-01T20:47:57.849Z,16.13
2018-11-01T20:50:26.889Z,18.67
2018-11-01T20:52:55.576Z,28.30
2018-11-01T20:55:24.125Z,30.67
2018-11-01T20:57:52.938Z,27.43
2018-11-01T21:00:21.361Z,22.43
2018-11-01T21:02:50.216Z,24.23
2018-11-01T21:05:18.796Z,27.63
2018-11-01T21:07:47.587Z,25.30
2018-11-01T21:10:16.674Z,25.73
2018-11-01T21:12:45.311Z,27.97
2018-11-01T21:15:15.051Z,27.90
2018-11-01T21:17:43.960Z,30.77
2018-11-01T21:20:12.713Z,25.50
2018-11-01T21:22:41.650Z,24.73
2018-11-01T21:25:11.689Z,28.13
2018-11-01T21:27:40.565Z,26.13
2018-11-01T21:30:09.545Z,23.63
2018-11-01T21:32:38.180Z,20.33
2018-11-01T21:35:07.485Z,20.57
2018-11-01T21:37:36.485Z,23.27
2018-11-01T21:40:07.093Z,23.87
2018-11-01T21:42:35.662Z,20.93
2018-11-01T21:45:04.740Z,34.67
2018-11-01T21:47:33.315Z,35.00
2018-11-01T21:50:02.128Z,51.60
2018-11-01T21:52:30.678Z,37.07
2018-11-01T21:54:59.320Z,35.40
2018-11-01T21:57:28.063Z,32.07
2018-11-01T21:59:56.992Z,27.60
2018-11-01T22:02:25.625Z,25.93
2018-11-01T22:04:54.857Z,34.10
2018-11-01T22:07:23.516Z,21.87
2018-11-01T22:09:52.311Z,20.87
2018-11-01T22:12:21.076Z,25.07
2018-11-01T22:14:49.699Z,21.53
2018-11-01T22:17:18.501Z,22.80
2018-11-01T22:19:47.236Z,19.97
2018-11-01T22:22:15.985Z,20.00
2018-11-01T22:24:44.780Z,21.53
2018-11-01T22:27:13.501Z,17.53
2018-11-01T22:29:42.109Z,18.67
2018-11-01T22:32:10.680Z,16.67
2018-11-01T22:34:39.268Z,18.83
2018-11-01T22:37:07.865Z,17.47
2018-11-01T22:39:36.533Z,20.10
2018-11-01T22:42:05.955Z,17.20
2018-11-01T22:44:34.756Z,16.43
2018-11-01T22:47:03.388Z,14.77
2018-11-01T22:49:31.981Z,18.17
2018-11-01T22:52:00.725Z,17.07
2018-11-01T22:54:29.681Z,16.53
2018-11-01T22:56:58.287Z,15.43
2018-11-01T22:59:26.880Z,13.73
2018-11-01T23:01:55.505Z,16.93
2018-11-01T23:04:24.487Z,15.73
2018-11-01T23:06:53.110Z,20.30
2018-11-01T23:09:21.689Z,18.50
2018-11-01T23:11:50.297Z,15.43
2018-11-01T23:14:19.097Z,19.80
2018-11-01T23:16:48.042Z,17.80
2018-11-01T23:19:16.676Z,17.47
2018-11-01T23:21:45.238Z,15.00
2018-11-01T23:24:14.109Z,17.77
2018-11-01T23:26:42.789Z,19.07
2018-11-01T23:29:11.557Z,23.17
2018-11-01T23:31:40.188Z,23.10
2018-11-01T23:34:08.892Z,28.80
2018-11-01T23:36:42.851Z,26.20
2018-11-01T23:39:16.650Z,17.73
2018-11-01T23:41:50.589Z,24.30
2018-11-01T23:44:24.532Z,17.40
2018-11-01T23:46:58.310Z,16.00
2018-11-01T23:50:03.637Z,18.57
2018-11-01T23:52:33.221Z,14.40
2018-11-01T23:55:01.859Z,13.03
2018-11-01T23:57:30.490Z,8.60
2018-11-01T23:59:59.164Z,11.20
